Terminal Aerodrome Forecast
Issued by NWS

Home | Current Version | Previous Version | Graphics & Text | Print | Product List | Glossary On
Versions: 1 2 3 4 5 6 7 8 9 10 11 12 13 14 15 16
241
FTUS43 KGRB 062340
TAFCWA
TAF
KCWA 062340Z 0700/0724 23008KT P6SM SCT011 OVC100
     FM070100 20011KT P6SM SCT040 BKN100
     FM070600 20008KT P6SM BKN100
     FM071200 22011G15KT P6SM BKN060 OVC090
      AMD LTD TO CLD VIS AND WND 0703/0711=

USA.gov is the U.S. government's official web portal to all federal, state and local government web resources and services.